sensor_id;sensor_type;location;lat;lon;timestamp;P1;durP1;ratioP1;P2;durP2;ratioP2
82399;SDS011;72039;48.812;8.198;2023-11-19T00:00:38;0.80;;;0.80;;
82399;SDS011;72039;48.812;8.198;2023-11-19T00:03:05;1.30;;;0.82;;
82399;SDS011;72039;48.812;8.198;2023-11-19T00:05:31;3.17;;;0.80;;
82399;SDS011;72039;48.812;8.198;2023-11-19T00:07:56;1.33;;;0.95;;
82399;SDS011;72039;48.812;8.198;2023-11-19T00:10:21;0.70;;;0.70;;
82399;SDS011;72039;48.812;8.198;2023-11-19T00:12:48;1.85;;;0.68;;
82399;SDS011;72039;48.812;8.198;2023-11-19T00:15:16;1.30;;;0.85;;
82399;SDS011;72039;48.812;8.198;2023-11-19T00:17:45;0.73;;;0.70;;
82399;SDS011;72039;48.812;8.198;2023-11-19T00:20:14;0.82;;;0.77;;
82399;SDS011;72039;48.812;8.198;2023-11-19T00:22:43;2.80;;;0.82;;
82399;SDS011;72039;48.812;8.198;2023-11-19T00:25:16;0.98;;;0.73;;
82399;SDS011;72039;48.812;8.198;2023-11-19T00:27:44;1.08;;;0.80;;
82399;SDS011;72039;48.812;8.198;2023-11-19T00:30:12;2.03;;;0.77;;
82399;SDS011;72039;48.812;8.198;2023-11-19T00:32:39;1.33;;;0.80;;
82399;SDS011;72039;48.812;8.198;2023-11-19T00:35:06;0.93;;;0.70;;
82399;SDS011;72039;48.812;8.198;2023-11-19T00:37:32;2.83;;;0.80;;
82399;SDS011;72039;48.812;8.198;2023-11-19T00:39:57;0.70;;;0.68;;
82399;SDS011;72039;48.812;8.198;2023-11-19T00:42:23;1.05;;;0.80;;
82399;SDS011;72039;48.812;8.198;2023-11-19T00:44:49;1.70;;;0.90;;
82399;SDS011;72039;48.812;8.198;2023-11-19T00:47:18;1.35;;;0.88;;
82399;SDS011;72039;48.812;8.198;2023-11-19T00:49:47;1.05;;;0.73;;
82399;SDS011;72039;48.812;8.198;2023-11-19T00:52:16;1.52;;;0.75;;
82399;SDS011;72039;48.812;8.198;2023-11-19T00:54:42;0.85;;;0.60;;
82399;SDS011;72039;48.812;8.198;2023-11-19T00:57:07;0.95;;;0.57;;
82399;SDS011;72039;48.812;8.198;2023-11-19T00:59:37;1.45;;;0.95;;
82399;SDS011;72039;48.812;8.198;2023-11-19T01:02:06;1.05;;;0.70;;
82399;SDS011;72039;48.812;8.198;2023-11-19T01:04:34;0.50;;;0.50;;
82399;SDS011;72039;48.812;8.198;2023-11-19T01:07:06;1.88;;;0.60;;
82399;SDS011;72039;48.812;8.198;2023-11-19T01:09:31;0.70;;;0.57;;
82399;SDS011;72039;48.812;8.198;2023-11-19T01:12:00;0.57;;;0.50;;
82399;SDS011;72039;48.812;8.198;2023-11-19T01:14:26;0.60;;;0.60;;
82399;SDS011;72039;48.812;8.198;2023-11-19T01:16:51;0.93;;;0.73;;
82399;SDS011;72039;48.812;8.198;2023-11-19T01:19:18;4.78;;;0.75;;
82399;SDS011;72039;48.812;8.198;2023-11-19T01:21:47;1.88;;;0.63;;
82399;SDS011;72039;48.812;8.198;2023-11-19T01:24:12;1.88;;;0.60;;
82399;SDS011;72039;48.812;8.198;2023-11-19T01:26:39;0.77;;;0.60;;
82399;SDS011;72039;48.812;8.198;2023-11-19T01:29:10;1.08;;;0.70;;
82399;SDS011;72039;48.812;8.198;2023-11-19T01:31:35;0.93;;;0.60;;
82399;SDS011;72039;48.812;8.198;2023-11-19T01:34:02;1.02;;;0.65;;
82399;SDS011;72039;48.812;8.198;2023-11-19T01:36:30;1.75;;;0.80;;
82399;SDS011;72039;48.812;8.198;2023-11-19T01:38:55;0.95;;;0.70;;
82399;SDS011;72039;48.812;8.198;2023-11-19T01:41:20;1.65;;;0.80;;
82399;SDS011;72039;48.812;8.198;2023-11-19T01:43:46;0.75;;;0.70;;
82399;SDS011;72039;48.812;8.198;2023-11-19T01:46:12;0.80;;;0.63;;
82399;SDS011;72039;48.812;8.198;2023-11-19T01:48:40;3.10;;;0.60;;
82399;SDS011;72039;48.812;8.198;2023-11-19T01:51:13;0.80;;;0.70;;
82399;SDS011;72039;48.812;8.198;2023-11-19T01:53:41;4.38;;;0.93;;
82399;SDS011;72039;48.812;8.198;2023-11-19T01:56:08;0.57;;;0.57;;
82399;SDS011;72039;48.812;8.198;2023-11-19T01:58:43;2.05;;;0.80;;
82399;SDS011;72039;48.812;8.198;2023-11-19T02:01:12;1.05;;;0.95;;
82399;SDS011;72039;48.812;8.198;2023-11-19T02:03:40;0.70;;;0.70;;
82399;SDS011;72039;48.812;8.198;2023-11-19T02:06:08;1.95;;;1.00;;
82399;SDS011;72039;48.812;8.198;2023-11-19T02:08:36;1.00;;;0.80;;
82399;SDS011;72039;48.812;8.198;2023-11-19T02:11:02;1.42;;;0.90;;
82399;SDS011;72039;48.812;8.198;2023-11-19T02:13:27;1.10;;;0.90;;
82399;SDS011;72039;48.812;8.198;2023-11-19T02:15:56;2.72;;;0.90;;
82399;SDS011;72039;48.812;8.198;2023-11-19T02:18:24;1.30;;;0.90;;
82399;SDS011;72039;48.812;8.198;2023-11-19T02:20:53;2.17;;;0.90;;
82399;SDS011;72039;48.812;8.198;2023-11-19T02:23:25;1.60;;;1.08;;
82399;SDS011;72039;48.812;8.198;2023-11-19T02:26:37;1.35;;;1.00;;
82399;SDS011;72039;48.812;8.198;2023-11-19T02:28:56;1.15;;;0.90;;
82399;SDS011;72039;48.812;8.198;2023-11-19T02:31:24;2.08;;;1.10;;
82399;SDS011;72039;48.812;8.198;2023-11-19T02:33:49;2.20;;;1.00;;
82399;SDS011;72039;48.812;8.198;2023-11-19T02:36:15;1.77;;;1.00;;
82399;SDS011;72039;48.812;8.198;2023-11-19T02:38:41;1.58;;;0.93;;
82399;SDS011;72039;48.812;8.198;2023-11-19T02:41:09;1.30;;;0.80;;
82399;SDS011;72039;48.812;8.198;2023-11-19T02:43:41;1.98;;;1.10;;
82399;SDS011;72039;48.812;8.198;2023-11-19T02:46:09;3.20;;;0.95;;
82399;SDS011;72039;48.812;8.198;2023-11-19T02:48:36;2.92;;;1.30;;
82399;SDS011;72039;48.812;8.198;2023-11-19T02:51:06;1.55;;;0.90;;
82399;SDS011;72039;48.812;8.198;2023-11-19T02:53:37;1.50;;;1.10;;
82399;SDS011;72039;48.812;8.198;2023-11-19T02:56:02;1.98;;;0.90;;
82399;SDS011;72039;48.812;8.198;2023-11-19T02:58:37;1.90;;;0.98;;
82399;SDS011;72039;48.812;8.198;2023-11-19T03:01:04;1.85;;;1.10;;
82399;SDS011;72039;48.812;8.198;2023-11-19T03:03:38;1.30;;;1.10;;
82399;SDS011;72039;48.812;8.198;2023-11-19T03:06:07;24.23;;;2.13;;
82399;SDS011;72039;48.812;8.198;2023-11-19T03:08:35;2.00;;;1.05;;
82399;SDS011;72039;48.812;8.198;2023-11-19T03:11:03;1.27;;;0.90;;
82399;SDS011;72039;48.812;8.198;2023-11-19T03:13:31;1.73;;;1.10;;
82399;SDS011;72039;48.812;8.198;2023-11-19T03:15:56;2.13;;;1.00;;
82399;SDS011;72039;48.812;8.198;2023-11-19T03:18:21;1.13;;;1.00;;
82399;SDS011;72039;48.812;8.198;2023-11-19T03:20:47;1.23;;;1.02;;
82399;SDS011;72039;48.812;8.198;2023-11-19T03:23:12;1.30;;;0.73;;
82399;SDS011;72039;48.812;8.198;2023-11-19T03:25:40;1.60;;;1.10;;
82399;SDS011;72039;48.812;8.198;2023-11-19T03:28:05;2.20;;;1.10;;
82399;SDS011;72039;48.812;8.198;2023-11-19T03:30:33;1.95;;;1.00;;
82399;SDS011;72039;48.812;8.198;2023-11-19T03:33:01;2.88;;;1.10;;
82399;SDS011;72039;48.812;8.198;2023-11-19T03:35:27;2.53;;;1.10;;
82399;SDS011;72039;48.812;8.198;2023-11-19T03:37:53;2.53;;;0.80;;
82399;SDS011;72039;48.812;8.198;2023-11-19T03:40:18;1.08;;;0.77;;
82399;SDS011;72039;48.812;8.198;2023-11-19T03:42:46;2.25;;;0.80;;
82399;SDS011;72039;48.812;8.198;2023-11-19T03:45:12;2.47;;;0.98;;
82399;SDS011;72039;48.812;8.198;2023-11-19T03:47:40;3.15;;;1.10;;
82399;SDS011;72039;48.812;8.198;2023-11-19T03:50:08;1.95;;;1.05;;
82399;SDS011;72039;48.812;8.198;2023-11-19T03:52:34;1.30;;;1.02;;
82399;SDS011;72039;48.812;8.198;2023-11-19T03:55:02;1.33;;;1.00;;
82399;SDS011;72039;48.812;8.198;2023-11-19T03:57:33;1.00;;;0.90;;
82399;SDS011;72039;48.812;8.198;2023-11-19T03:59:58;1.88;;;1.02;;
82399;SDS011;72039;48.812;8.198;2023-11-19T04:02:30;2.13;;;1.10;;
82399;SDS011;72039;48.812;8.198;2023-11-19T04:04:55;2.20;;;0.80;;
82399;SDS011;72039;48.812;8.198;2023-11-19T04:07:21;0.80;;;0.70;;
82399;SDS011;72039;48.812;8.198;2023-11-19T04:09:46;1.08;;;0.80;;
82399;SDS011;72039;48.812;8.198;2023-11-19T04:12:13;1.20;;;0.80;;
82399;SDS011;72039;48.812;8.198;2023-11-19T04:14:39;1.20;;;0.70;;
82399;SDS011;72039;48.812;8.198;2023-11-19T04:17:05;1.08;;;0.70;;
82399;SDS011;72039;48.812;8.198;2023-11-19T04:19:30;1.10;;;0.90;;
82399;SDS011;72039;48.812;8.198;2023-11-19T04:21:57;0.77;;;0.70;;
82399;SDS011;72039;48.812;8.198;2023-11-19T04:24:25;0.60;;;0.60;;
82399;SDS011;72039;48.812;8.198;2023-11-19T04:26:50;0.65;;;0.63;;
82399;SDS011;72039;48.812;8.198;2023-11-19T04:29:15;0.73;;;0.60;;
82399;SDS011;72039;48.812;8.198;2023-11-19T04:31:42;0.80;;;0.70;;
82399;SDS011;72039;48.812;8.198;2023-11-19T04:34:10;0.85;;;0.70;;
82399;SDS011;72039;48.812;8.198;2023-11-19T04:36:38;0.57;;;0.50;;
82399;SDS011;72039;48.812;8.198;2023-11-19T04:39:08;1.80;;;0.50;;
82399;SDS011;72039;48.812;8.198;2023-11-19T04:41:49;0.45;;;0.45;;
82399;SDS011;72039;48.812;8.198;2023-11-19T04:44:18;0.70;;;0.60;;
82399;SDS011;72039;48.812;8.198;2023-11-19T04:46:44;0.60;;;0.60;;
82399;SDS011;72039;48.812;8.198;2023-11-19T04:49:10;0.90;;;0.60;;
82399;SDS011;72039;48.812;8.198;2023-11-19T04:51:43;0.45;;;0.45;;
82399;SDS011;72039;48.812;8.198;2023-11-19T04:54:12;0.75;;;0.73;;
82399;SDS011;72039;48.812;8.198;2023-11-19T04:56:40;0.70;;;0.70;;
82399;SDS011;72039;48.812;8.198;2023-11-19T04:59:05;2.55;;;0.50;;
82399;SDS011;72039;48.812;8.198;2023-11-19T05:01:33;0.75;;;0.60;;
82399;SDS011;72039;48.812;8.198;2023-11-19T05:04:01;2.45;;;0.70;;
82399;SDS011;72039;48.812;8.198;2023-11-19T05:06:27;0.57;;;0.43;;
82399;SDS011;72039;48.812;8.198;2023-11-19T05:08:54;0.60;;;0.60;;
82399;SDS011;72039;48.812;8.198;2023-11-19T05:11:20;0.43;;;0.40;;
82399;SDS011;72039;48.812;8.198;2023-11-19T05:13:46;0.47;;;0.47;;
82399;SDS011;72039;48.812;8.198;2023-11-19T05:16:14;0.45;;;0.45;;
82399;SDS011;72039;48.812;8.198;2023-11-19T05:18:40;0.73;;;0.50;;
82399;SDS011;72039;48.812;8.198;2023-11-19T05:21:05;2.83;;;0.85;;
82399;SDS011;72039;48.812;8.198;2023-11-19T05:23:34;0.50;;;0.50;;
82399;SDS011;72039;48.812;8.198;2023-11-19T05:26:00;0.68;;;0.45;;
82399;SDS011;72039;48.812;8.198;2023-11-19T05:28:26;1.20;;;0.50;;
82399;SDS011;72039;48.812;8.198;2023-11-19T05:30:54;0.82;;;0.65;;
82399;SDS011;72039;48.812;8.198;2023-11-19T05:33:24;2.28;;;0.90;;
82399;SDS011;72039;48.812;8.198;2023-11-19T05:35:49;1.13;;;0.90;;
82399;SDS011;72039;48.812;8.198;2023-11-19T05:38:17;1.20;;;0.70;;
82399;SDS011;72039;48.812;8.198;2023-11-19T05:40:42;0.60;;;0.55;;
82399;SDS011;72039;48.812;8.198;2023-11-19T05:43:08;1.30;;;0.70;;
82399;SDS011;72039;48.812;8.198;2023-11-19T05:45:34;0.82;;;0.70;;
82399;SDS011;72039;48.812;8.198;2023-11-19T05:48:01;0.90;;;0.70;;
82399;SDS011;72039;48.812;8.198;2023-11-19T05:50:29;0.40;;;0.40;;
82399;SDS011;72039;48.812;8.198;2023-11-19T05:52:54;1.85;;;0.50;;
82399;SDS011;72039;48.812;8.198;2023-11-19T05:55:22;0.55;;;0.55;;
82399;SDS011;72039;48.812;8.198;2023-11-19T05:57:48;1.02;;;0.60;;
82399;SDS011;72039;48.812;8.198;2023-11-19T06:00:16;0.77;;;0.40;;
82399;SDS011;72039;48.812;8.198;2023-11-19T06:02:42;0.50;;;0.50;;
82399;SDS011;72039;48.812;8.198;2023-11-19T06:05:10;0.55;;;0.47;;
82399;SDS011;72039;48.812;8.198;2023-11-19T06:07:37;0.60;;;0.50;;
82399;SDS011;72039;48.812;8.198;2023-11-19T06:10:06;0.85;;;0.60;;
82399;SDS011;72039;48.812;8.198;2023-11-19T06:12:33;0.85;;;0.50;;
82399;SDS011;72039;48.812;8.198;2023-11-19T06:15:02;0.82;;;0.47;;
82399;SDS011;72039;48.812;8.198;2023-11-19T06:17:33;1.67;;;0.50;;
82399;SDS011;72039;48.812;8.198;2023-11-19T06:20:01;1.75;;;0.95;;
82399;SDS011;72039;48.812;8.198;2023-11-19T06:22:28;0.70;;;0.60;;
82399;SDS011;72039;48.812;8.198;2023-11-19T06:24:54;0.50;;;0.40;;
82399;SDS011;72039;48.812;8.198;2023-11-19T06:27:19;0.70;;;0.50;;
82399;SDS011;72039;48.812;8.198;2023-11-19T06:29:44;0.60;;;0.60;;
82399;SDS011;72039;48.812;8.198;2023-11-19T06:32:12;1.08;;;0.50;;
82399;SDS011;72039;48.812;8.198;2023-11-19T06:34:42;1.60;;;1.30;;
82399;SDS011;72039;48.812;8.198;2023-11-19T06:37:10;0.82;;;0.70;;
82399;SDS011;72039;48.812;8.198;2023-11-19T06:39:40;1.13;;;0.90;;
82399;SDS011;72039;48.812;8.198;2023-11-19T06:42:05;0.80;;;0.40;;
82399;SDS011;72039;48.812;8.198;2023-11-19T06:44:34;0.90;;;0.40;;
82399;SDS011;72039;48.812;8.198;2023-11-19T06:47:01;1.73;;;0.50;;
82399;SDS011;72039;48.812;8.198;2023-11-19T06:52:25;1.50;;;0.70;;
82399;SDS011;72039;48.812;8.198;2023-11-19T06:54:52;0.57;;;0.40;;
82399;SDS011;72039;48.812;8.198;2023-11-19T06:57:45;0.30;;;0.30;;
82399;SDS011;72039;48.812;8.198;2023-11-19T07:00:16;0.43;;;0.43;;
82399;SDS011;72039;48.812;8.198;2023-11-19T07:06:04;0.45;;;0.45;;
82399;SDS011;72039;48.812;8.198;2023-11-19T07:08:45;0.40;;;0.40;;
82399;SDS011;72039;48.812;8.198;2023-11-19T07:11:10;4.43;;;0.65;;
82399;SDS011;72039;48.812;8.198;2023-11-19T07:13:38;0.40;;;0.40;;
82399;SDS011;72039;48.812;8.198;2023-11-19T07:16:06;0.40;;;0.40;;
82399;SDS011;72039;48.812;8.198;2023-11-19T07:18:55;0.40;;;0.40;;
82399;SDS011;72039;48.812;8.198;2023-11-19T07:21:51;0.70;;;0.45;;
82399;SDS011;72039;48.812;8.198;2023-11-19T07:24:19;1.42;;;0.60;;
82399;SDS011;72039;48.812;8.198;2023-11-19T07:26:47;1.00;;;0.50;;
82399;SDS011;72039;48.812;8.198;2023-11-19T07:29:16;0.50;;;0.43;;
82399;SDS011;72039;48.812;8.198;2023-11-19T07:31:42;0.50;;;0.50;;
82399;SDS011;72039;48.812;8.198;2023-11-19T07:34:18;1.60;;;0.70;;
82399;SDS011;72039;48.812;8.198;2023-11-19T07:36:44;1.67;;;0.70;;
82399;SDS011;72039;48.812;8.198;2023-11-19T07:39:13;1.77;;;0.65;;
82399;SDS011;72039;48.812;8.198;2023-11-19T07:41:40;0.88;;;0.60;;
82399;SDS011;72039;48.812;8.198;2023-11-19T07:44:06;0.70;;;0.70;;
82399;SDS011;72039;48.812;8.198;2023-11-19T07:57:14;1.42;;;0.68;;
82399;SDS011;72039;48.812;8.198;2023-11-19T07:59:55;1.50;;;0.80;;
82399;SDS011;72039;48.812;8.198;2023-11-19T08:05:18;0.90;;;0.73;;
82399;SDS011;72039;48.812;8.198;2023-11-19T08:07:43;1.00;;;0.70;;
82399;SDS011;72039;48.812;8.198;2023-11-19T08:10:09;0.77;;;0.70;;
82399;SDS011;72039;48.812;8.198;2023-11-19T08:12:35;2.97;;;0.80;;
82399;SDS011;72039;48.812;8.198;2023-11-19T08:15:03;2.63;;;0.82;;
82399;SDS011;72039;48.812;8.198;2023-11-19T08:17:29;1.83;;;0.70;;
82399;SDS011;72039;48.812;8.198;2023-11-19T08:19:57;1.33;;;0.80;;
82399;SDS011;72039;48.812;8.198;2023-11-19T08:22:27;2.03;;;0.90;;
82399;SDS011;72039;48.812;8.198;2023-11-19T08:24:55;2.95;;;0.80;;
82399;SDS011;72039;48.812;8.198;2023-11-19T08:27:20;1.00;;;0.70;;
82399;SDS011;72039;48.812;8.198;2023-11-19T08:29:51;1.40;;;1.00;;
82399;SDS011;72039;48.812;8.198;2023-11-19T08:32:23;1.85;;;1.13;;
82399;SDS011;72039;48.812;8.198;2023-11-19T08:34:49;3.42;;;1.60;;
82399;SDS011;72039;48.812;8.198;2023-11-19T08:37:14;5.22;;;2.22;;
82399;SDS011;72039;48.812;8.198;2023-11-19T08:39:40;4.95;;;2.47;;
82399;SDS011;72039;48.812;8.198;2023-11-19T08:42:07;3.72;;;1.30;;
82399;SDS011;72039;48.812;8.198;2023-11-19T08:44:35;2.22;;;1.00;;
82399;SDS011;72039;48.812;8.198;2023-11-19T08:47:00;1.55;;;0.90;;
82399;SDS011;72039;48.812;8.198;2023-11-19T08:49:27;1.83;;;1.20;;
82399;SDS011;72039;48.812;8.198;2023-11-19T08:51:52;1.13;;;0.80;;
82399;SDS011;72039;48.812;8.198;2023-11-19T08:54:20;1.95;;;0.95;;
82399;SDS011;72039;48.812;8.198;2023-11-19T08:56:47;2.47;;;1.00;;
82399;SDS011;72039;48.812;8.198;2023-11-19T08:59:15;1.67;;;0.90;;
82399;SDS011;72039;48.812;8.198;2023-11-19T09:01:41;1.67;;;0.80;;
82399;SDS011;72039;48.812;8.198;2023-11-19T09:04:06;0.77;;;0.77;;
82399;SDS011;72039;48.812;8.198;2023-11-19T09:06:32;2.40;;;0.85;;
82399;SDS011;72039;48.812;8.198;2023-11-19T09:08:57;2.90;;;0.80;;
82399;SDS011;72039;48.812;8.198;2023-11-19T09:11:27;2.13;;;1.10;;
82399;SDS011;72039;48.812;8.198;2023-11-19T09:13:55;7.35;;;3.30;;
82399;SDS011;72039;48.812;8.198;2023-11-19T09:16:21;2.15;;;1.10;;
82399;SDS011;72039;48.812;8.198;2023-11-19T09:18:46;2.97;;;1.25;;
82399;SDS011;72039;48.812;8.198;2023-11-19T09:21:12;3.55;;;1.35;;
82399;SDS011;72039;48.812;8.198;2023-11-19T09:23:37;1.85;;;1.20;;
82399;SDS011;72039;48.812;8.198;2023-11-19T09:26:08;1.55;;;1.20;;
82399;SDS011;72039;48.812;8.198;2023-11-19T09:28:35;2.67;;;1.38;;
82399;SDS011;72039;48.812;8.198;2023-11-19T09:31:00;2.47;;;1.00;;
82399;SDS011;72039;48.812;8.198;2023-11-19T09:33:29;2.35;;;1.10;;
82399;SDS011;72039;48.812;8.198;2023-11-19T09:35:54;2.03;;;1.30;;
82399;SDS011;72039;48.812;8.198;2023-11-19T09:38:22;2.20;;;1.10;;
82399;SDS011;72039;48.812;8.198;2023-11-19T09:40:48;1.25;;;0.90;;
82399;SDS011;72039;48.812;8.198;2023-11-19T09:43:13;3.90;;;2.58;;
82399;SDS011;72039;48.812;8.198;2023-11-19T09:45:48;1.42;;;1.27;;
82399;SDS011;72039;48.812;8.198;2023-11-19T09:48:18;5.80;;;2.15;;
82399;SDS011;72039;48.812;8.198;2023-11-19T09:50:47;1.30;;;1.00;;
82399;SDS011;72039;48.812;8.198;2023-11-19T09:53:13;1.40;;;1.27;;
82399;SDS011;72039;48.812;8.198;2023-11-19T09:55:41;1.90;;;1.50;;
82399;SDS011;72039;48.812;8.198;2023-11-19T09:58:12;1.65;;;1.33;;
82399;SDS011;72039;48.812;8.198;2023-11-19T10:00:40;1.70;;;1.30;;
82399;SDS011;72039;48.812;8.198;2023-11-19T10:03:08;1.33;;;1.10;;
82399;SDS011;72039;48.812;8.198;2023-11-19T10:05:36;2.63;;;1.23;;
82399;SDS011;72039;48.812;8.198;2023-11-19T10:08:04;3.75;;;1.20;;
82399;SDS011;72039;48.812;8.198;2023-11-19T10:10:30;1.90;;;1.10;;
82399;SDS011;72039;48.812;8.198;2023-11-19T10:12:57;3.20;;;2.08;;
82399;SDS011;72039;48.812;8.198;2023-11-19T10:15:23;0.95;;;0.82;;
82399;SDS011;72039;48.812;8.198;2023-11-19T10:17:54;2.30;;;1.10;;
82399;SDS011;72039;48.812;8.198;2023-11-19T10:20:21;2.03;;;1.05;;
82399;SDS011;72039;48.812;8.198;2023-11-19T10:22:52;1.73;;;1.10;;
82399;SDS011;72039;48.812;8.198;2023-11-19T10:25:26;1.35;;;0.90;;
82399;SDS011;72039;48.812;8.198;2023-11-19T10:27:55;1.38;;;1.10;;
82399;SDS011;72039;48.812;8.198;2023-11-19T10:30:25;2.65;;;1.48;;
82399;SDS011;72039;48.812;8.198;2023-11-19T10:35:37;2.30;;;1.10;;
82399;SDS011;72039;48.812;8.198;2023-11-19T10:38:19;1.50;;;1.05;;
82399;SDS011;72039;48.812;8.198;2023-11-19T10:40:47;3.17;;;1.00;;
82399;SDS011;72039;48.812;8.198;2023-11-19T10:43:19;1.65;;;1.25;;
82399;SDS011;72039;48.812;8.198;2023-11-19T10:45:47;3.00;;;1.20;;
82399;SDS011;72039;48.812;8.198;2023-11-19T10:48:12;1.10;;;1.00;;
82399;SDS011;72039;48.812;8.198;2023-11-19T10:50:38;3.63;;;1.30;;
82399;SDS011;72039;48.812;8.198;2023-11-19T10:53:05;4.00;;;2.17;;
82399;SDS011;72039;48.812;8.198;2023-11-19T10:55:34;1.52;;;1.10;;
82399;SDS011;72039;48.812;8.198;2023-11-19T11:03:05;2.40;;;1.40;;
82399;SDS011;72039;48.812;8.198;2023-11-19T11:05:35;3.25;;;1.45;;
82399;SDS011;72039;48.812;8.198;2023-11-19T11:08:03;1.20;;;1.10;;
82399;SDS011;72039;48.812;8.198;2023-11-19T11:10:30;2.47;;;2.28;;
82399;SDS011;72039;48.812;8.198;2023-11-19T11:12:59;4.68;;;1.40;;
82399;SDS011;72039;48.812;8.198;2023-11-19T11:15:27;3.33;;;1.85;;
82399;SDS011;72039;48.812;8.198;2023-11-19T11:17:54;2.95;;;1.70;;
82399;SDS011;72039;48.812;8.198;2023-11-19T11:20:25;1.50;;;1.40;;
82399;SDS011;72039;48.812;8.198;2023-11-19T11:23:20;2.10;;;1.40;;
82399;SDS011;72039;48.812;8.198;2023-11-19T11:25:58;2.78;;;1.20;;
82399;SDS011;72039;48.812;8.198;2023-11-19T11:28:58;4.43;;;1.20;;
82399;SDS011;72039;48.812;8.198;2023-11-19T11:39:33;2.83;;;1.20;;
82399;SDS011;72039;48.812;8.198;2023-11-19T11:50:07;1.55;;;0.90;;
82399;SDS011;72039;48.812;8.198;2023-11-19T11:58:21;4.15;;;1.17;;
82399;SDS011;72039;48.812;8.198;2023-11-19T12:00:52;1.90;;;1.10;;
82399;SDS011;72039;48.812;8.198;2023-11-19T13:07:51;2.38;;;1.40;;
82399;SDS011;72039;48.812;8.198;2023-11-19T13:10:23;2.83;;;1.13;;
82399;SDS011;72039;48.812;8.198;2023-11-19T13:13:08;3.90;;;1.08;;
82399;SDS011;72039;48.812;8.198;2023-11-19T13:15:34;2.05;;;1.20;;
82399;SDS011;72039;48.812;8.198;2023-11-19T13:18:00;3.50;;;1.40;;
82399;SDS011;72039;48.812;8.198;2023-11-19T13:23:48;2.38;;;1.75;;
82399;SDS011;72039;48.812;8.198;2023-11-19T13:29:35;5.45;;;1.85;;
82399;SDS011;72039;48.812;8.198;2023-11-19T13:35:22;3.20;;;1.65;;
82399;SDS011;72039;48.812;8.198;2023-11-19T13:41:09;2.78;;;1.60;;
82399;SDS011;72039;48.812;8.198;2023-11-19T13:46:25;2.40;;;1.60;;
82399;SDS011;72039;48.812;8.198;2023-11-19T13:48:50;2.65;;;1.70;;
82399;SDS011;72039;48.812;8.198;2023-11-19T13:51:15;4.13;;;2.13;;
82399;SDS011;72039;48.812;8.198;2023-11-19T13:53:41;4.25;;;3.10;;
82399;SDS011;72039;48.812;8.198;2023-11-19T13:56:08;4.75;;;2.97;;
82399;SDS011;72039;48.812;8.198;2023-11-19T13:58:36;3.83;;;2.47;;
82399;SDS011;72039;48.812;8.198;2023-11-19T14:01:02;3.30;;;2.00;;
82399;SDS011;72039;48.812;8.198;2023-11-19T14:03:27;3.05;;;1.63;;
82399;SDS011;72039;48.812;8.198;2023-11-19T14:05:53;4.18;;;1.75;;
82399;SDS011;72039;48.812;8.198;2023-11-19T14:08:23;3.95;;;1.73;;
82399;SDS011;72039;48.812;8.198;2023-11-19T14:10:48;5.18;;;1.63;;
82399;SDS011;72039;48.812;8.198;2023-11-19T14:13:14;4.03;;;1.75;;
82399;SDS011;72039;48.812;8.198;2023-11-19T14:15:42;2.92;;;1.70;;
82399;SDS011;72039;48.812;8.198;2023-11-19T14:18:07;1.77;;;1.30;;
82399;SDS011;72039;48.812;8.198;2023-11-19T14:20:36;2.00;;;1.33;;
82399;SDS011;72039;48.812;8.198;2023-11-19T14:23:09;2.25;;;1.25;;
82399;SDS011;72039;48.812;8.198;2023-11-19T14:25:42;2.15;;;1.30;;
82399;SDS011;72039;48.812;8.198;2023-11-19T14:28:08;8.68;;;1.30;;
82399;SDS011;72039;48.812;8.198;2023-11-19T14:30:33;1.50;;;0.93;;
82399;SDS011;72039;48.812;8.198;2023-11-19T14:33:07;1.30;;;0.88;;
82399;SDS011;72039;48.812;8.198;2023-11-19T14:35:33;0.93;;;0.77;;
